Quick Links (Output Below):   Max & Min Temps   /   Climate Reports   /   Zone Forecasts
River Forecasts   /   Forestry Forecasts   /   Aviation Forecasts   /   Radars   /   Features

Terminal Aerodrome Forecast (Hot Springs)

Pick a Site:
Arkadelphia | El Dorado | Fayetteville | Fort Smith | Harrison | Highfill | Hot Springs | Jonesboro
Little Rock | Monticello | Mountain Home | Pine Bluff | Texarkana
 Forecast 

KHOT 301316Z 3013/3112 00000KT 4SM BR SCT001
      TEMPO 3013/3014 1/4SM FG BKN001
     FM301500 21008KT P6SM SCT060
     FM310400 34008G16KT P6SM SKC=


 Latest METARs (Observations) 
How to Decode METARs
13Z KHOT 301253Z AUTO 00000KT M1/4SM -RA FG VV001 06/06 A3017 RMK AO2
         RAB50 SLP214 P0000 T00610056
         
12Z KHOT 301153Z AUTO 00000KT 2SM BR SCT001 06/05 A3017 RMK AO2 SLP215
         60000 T00610050 10083 20061 52004
         
11Z KHOT 301053Z AUTO 00000KT 3/4SM BR VV001 07/06 A3016 RMK AO2
         SLP210 T00670061
         
10Z KHOT 300953Z AUTO 00000KT 1/4SM FG VV001 08/08 A3016 RMK AO2
         RAB06E35 SLP209 P0000 T00830078
         
09Z KHOT 300853Z AUTO 00000KT 10SM FEW002 07/07 A3016 RMK AO2 SLP209
         T00720067 55002
         
08Z KHOT 300753Z AUTO 29003KT 10SM CLR 07/07 A3016 RMK AO2 SLP209
         T00720067
         
07Z KHOT 300653Z AUTO 00000KT 10SM CLR 07/06 A3016 RMK AO2 SLP209
         T00720061
         
06Z KHOT 300553Z AUTO 00000KT 10SM CLR 08/07 A3016 RMK AO2 SLP212
         T00830067 10156 20083 402280078 50000
         
05Z KHOT 300453Z AUTO 00000KT 10SM CLR 08/07 A3017 RMK AO2 SLP214
         T00830067
         
04Z KHOT 300353Z AUTO 00000KT 10SM CLR 08/07 A3017 RMK AO2 SLP213
         T00830072
         
***** Today's Observations (Above) *****


Back to Main Page
http://www.srh.noaa.gov/lzk/qfcst.php

USA.gov is the U.S. government's official web portal to all federal, state and local government web resources and services.